KPBF/PBF METAR and TAF weather

Enter ICAO airport designator
Station Type Date Time Source
KPBF METAR 2021/06/22 21:53 UTC NOAA

KPBF 222153Z AUTO 06004KT 10SM CLR 28/08 A3002 RMK AO2 SLP162 T02830083


Station Type Date Time Source
KPBF Decoded METAR 2021/06/22 21:53 UTC NOAA

PINE BLUFF GRIDER FIELD, AR, United States (KPBF) 34-11N 091-56W 62M
Jun 22, 2021 - 05:53 PM EDT / 2021.06.22 2153 UTC
Wind: from the ENE (060 degrees) at 5 MPH (4 KT):0
Visibility: 10 mile(s):0
Sky conditions: clear
Temperature: 82.9 F (28.3 C)
Dew Point: 46.9 F (8.3 C)
Relative Humidity: 28%
Pressure (altimeter): 30.02 in. Hg (1016 hPa)
ob: KPBF 222153Z AUTO 06004KT 10SM CLR 28/08 A3002 RMK AO2 SLP162 T02830083
cycle: 22

Station Type Date Time Source
KPBF TAF 2021/06/22 18:28 UTC NOAA

TAF KPBF 221726Z 2218/2318 05008KT P6SM SKC
FM230200 VRB05KT P6SM SKC

Example: see airport list